»·PEaware :: UAL1156 KSFO-KPDX

UAL1156 :: KSFO-KPDX

FLIGHT INFORMATION

Flight Status: Arrived
Operator:
United Airlines
More flights by this operator :: More flights under this callsign
Pilot: Utku A. (15598)
Aircraft: BOEING 737-800
(B738)
More flights by this aircraft type
Origin: KSFO San Francisco Intl
United States
Destination: KPDX Portland Intl
United States
More flights between these airports :: More routes between these airports
Route: TRUKN2 GRTFL MACHU TMBRS2
File this flight plan on PilotEdge
Remarks:
Altitude:
(Current/Filed)
34,000ft
Speed:
(Current/Filed)
447kts
Departed: 04-Aug-18 02:42 PM
Arrived: 04-Aug-18 03:59 PM
Distance/Time
Traveled:
478nm/1:17
Distance/Time
To Go:
Arrived

Flight Plot

Page will automatically refresh every two minutes.


Map Options




Map Legend


Flown Route
Filed Route
Departure Airport
Arrival Airport
Navaid (VOR, NDB)
Fix

Horizontal Profiles

Position Reports

Time Latitude Longitude Heading Altitude Ground
Speed
04-Aug-18 14:17 37.619183 -122.383509 291 30ft 0kts
04-Aug-18 14:18 37.619183 -122.383509 291 30ft 0kts
04-Aug-18 14:19 37.619183 -122.383509 291 30ft 0kts
04-Aug-18 14:20 37.619183 -122.383509 291 30ft 0kts
04-Aug-18 14:21 37.619183 -122.383509 291 30ft 0kts
04-Aug-18 14:22 37.619183 -122.383509 291 30ft 0kts
04-Aug-18 14:23 37.619183 -122.383509 291 30ft 0kts
04-Aug-18 14:24 37.619183 -122.383509 291 31ft 0kts
04-Aug-18 14:25 37.619183 -122.383509 291 31ft 0kts
04-Aug-18 14:26 37.619183 -122.383509 291 31ft 0kts
04-Aug-18 14:27 37.619183 -122.383509 291 31ft 0kts
04-Aug-18 14:28 37.619183 -122.383509 291 31ft 0kts
04-Aug-18 14:29 37.619183 -122.383509 291 31ft 0kts
04-Aug-18 14:30 37.619183 -122.383509 291 31ft 0kts
04-Aug-18 14:31 37.619183 -122.383509 291 31ft 0kts
04-Aug-18 14:32 37.619108 -122.383334 312 31ft 2kts
04-Aug-18 14:33 37.618564 -122.383168 24 31ft 2kts
04-Aug-18 14:34 37.618494 -122.383215 32 30ft 0kts
04-Aug-18 14:35 37.618494 -122.383215 32 30ft 0kts
04-Aug-18 14:36 37.618528 -122.383191 28 30ft 0kts
04-Aug-18 14:37 37.619491 -122.382527 39 30ft 6kts
04-Aug-18 14:38 37.618384 -122.378951 115 28ft 15kts
04-Aug-18 14:39 37.616118 -122.372562 118 13ft 19kts
04-Aug-18 14:40 37.613347 -122.367080 117 10ft 16kts
04-Aug-18 14:41 37.611041 -122.361571 120 8ft 17kts
04-Aug-18 14:42 37.611820 -122.358659 304 8ft 5kts
04-Aug-18 14:43 37.621817 -122.382628 300 289ft 162kts
04-Aug-18 14:44 37.654886 -122.414955 37 2046ft 191kts
04-Aug-18 14:45 37.679213 -122.346500 69 2822ft 254kts
04-Aug-18 14:46 37.703734 -122.261803 68 6044ft 266kts
04-Aug-18 14:47 37.762304 -122.213309 1 8946ft 278kts
04-Aug-18 14:48 37.842557 -122.216278 358 10727ft 306kts
04-Aug-18 14:49 37.929072 -122.219128 359 12511ft 317kts
04-Aug-18 14:50 38.018070 -122.221748 359 14203ft 325kts
04-Aug-18 14:51 38.106474 -122.224248 359 15658ft 334kts
04-Aug-18 14:52 38.199880 -122.226840 359 17139ft 339kts
04-Aug-18 14:53 38.295122 -122.229464 359 18416ft 346kts
04-Aug-18 14:54 38.382564 -122.233790 342 19485ft 353kts
04-Aug-18 14:55 38.484743 -122.248396 345 19980ft 379kts
04-Aug-18 14:56 38.590979 -122.263655 345 21585ft 389kts
04-Aug-18 14:57 38.699900 -122.279224 344 23299ft 400kts
04-Aug-18 14:58 38.811506 -122.295146 344 24899ft 410kts
04-Aug-18 14:59 38.925900 -122.311469 343 26319ft 421kts
04-Aug-18 15:00 39.043831 -122.328307 343 27545ft 434kts
04-Aug-18 15:01 39.161147 -122.345020 342 28752ft 442kts
04-Aug-18 15:02 39.283515 -122.362436 342 30067ft 444kts
04-Aug-18 15:03 39.405208 -122.379744 341 31499ft 440kts
04-Aug-18 15:04 39.526606 -122.397065 340 32716ft 439kts
04-Aug-18 15:05 39.647411 -122.414323 340 33788ft 438kts
04-Aug-18 15:06 39.771261 -122.432299 340 33918ft 463kts
04-Aug-18 15:07 39.902001 -122.450994 341 33915ft 481kts
04-Aug-18 15:08 40.034670 -122.469787 341 33916ft 482kts
04-Aug-18 15:09 40.164268 -122.488249 341 33903ft 482kts
04-Aug-18 15:10 40.296804 -122.507211 341 33876ft 483kts
04-Aug-18 15:11 40.429768 -122.526188 341 33877ft 482kts
04-Aug-18 15:12 40.562739 -122.545167 341 33880ft 482kts
04-Aug-18 15:13 40.695912 -122.564219 341 33881ft 481kts
04-Aug-18 15:14 40.828996 -122.583260 341 33880ft 482kts
04-Aug-18 15:15 40.961991 -122.602270 341 33881ft 481kts
04-Aug-18 15:16 41.094001 -122.621221 345 33980ft 472kts
04-Aug-18 15:17 41.219137 -122.639120 346 34026ft 472kts
04-Aug-18 15:18 41.345886 -122.657198 345 34038ft 471kts
04-Aug-18 15:19 41.475671 -122.675720 346 34052ft 471kts
04-Aug-18 15:20 41.605535 -122.694254 345 34043ft 471kts
04-Aug-18 15:21 41.713508 -122.709700 345 34040ft 470kts
04-Aug-18 15:22 41.865023 -122.731423 346 34043ft 472kts
04-Aug-18 15:23 41.994974 -122.749998 346 34038ft 471kts
04-Aug-18 15:24 42.102006 -122.765324 346 34026ft 470kts
04-Aug-18 15:25 42.230113 -122.783681 346 34004ft 471kts
04-Aug-18 15:26 42.381986 -122.805430 346 34001ft 471kts
04-Aug-18 15:27 42.490355 -122.820957 346 34001ft 472kts
04-Aug-18 15:28 42.619880 -122.839503 346 34004ft 471kts
04-Aug-18 15:29 42.750050 -122.858175 346 34002ft 472kts
04-Aug-18 15:30 42.879829 -122.871428 355 34012ft 481kts
04-Aug-18 15:31 43.010458 -122.859537 1 34013ft 456kts
04-Aug-18 15:32 43.133874 -122.848045 2 34016ft 457kts
04-Aug-18 15:33 43.260017 -122.836370 2 34017ft 456kts
04-Aug-18 15:34 43.386567 -122.824730 2 34018ft 456kts
04-Aug-18 15:35 43.513159 -122.812986 2 33216ft 457kts
04-Aug-18 15:36 43.639313 -122.801270 2 31932ft 459kts
04-Aug-18 15:37 43.766905 -122.789421 2 30651ft 462kts
04-Aug-18 15:38 43.891699 -122.777717 2 29409ft 465kts
04-Aug-18 15:39 44.020672 -122.765619 2 28123ft 468kts
04-Aug-18 15:40 44.138953 -122.754441 2 26895ft 442kts
04-Aug-18 15:41 44.253799 -122.743186 2 25580ft 408kts
04-Aug-18 15:42 44.364050 -122.732273 2 23783ft 390kts
04-Aug-18 15:43 44.470134 -122.721751 2 21891ft 380kts
04-Aug-18 15:44 44.573914 -122.711424 2 19989ft 370kts
04-Aug-18 15:45 44.672724 -122.701510 3 18143ft 357kts
04-Aug-18 15:46 44.749771 -122.693745 2 17016ft 340kts
04-Aug-18 15:47 44.842003 -122.684431 3 15584ft 326kts
04-Aug-18 15:48 44.930589 -122.675493 3 14181ft 315kts
04-Aug-18 15:49 45.016840 -122.666750 3 12759ft 308kts
04-Aug-18 15:50 45.100538 -122.658270 3 11275ft 302kts
04-Aug-18 15:51 45.181571 -122.650028 4 9798ft 293kts
04-Aug-18 15:52 45.258811 -122.635410 28 8536ft 265kts
04-Aug-18 15:53 45.316740 -122.584019 32 6821ft 235kts
04-Aug-18 15:54 45.370544 -122.535143 32 4824ft 228kts
04-Aug-18 15:55 45.423396 -122.486827 32 4182ft 226kts
04-Aug-18 15:56 45.475118 -122.442745 8 3064ft 210kts
04-Aug-18 15:57 45.530463 -122.443981 333 1995ft 187kts
04-Aug-18 15:58 45.549956 -122.505428 296 1363ft 160kts
04-Aug-18 15:59 45.571536 -122.560867 298 446ft 158kts
04-Aug-18 16:00 45.588085 -122.603311 297 37ft 27kts
04-Aug-18 16:01 45.589648 -122.604138 98 37ft 5kts
04-Aug-18 16:02 45.591089 -122.600795 40 37ft 12kts
04-Aug-18 16:03 45.592981 -122.597631 52 37ft 10kts
04-Aug-18 16:04 45.591610 -122.592824 118 37ft 16kts
04-Aug-18 16:05 45.590099 -122.591013 207 37ft 0kts
04-Aug-18 16:06 45.590100 -122.591013 207 37ft 0kts
04-Aug-18 16:07 45.590100 -122.591013 207 37ft 0kts
04-Aug-18 16:08 45.590100 -122.591013 207 37ft 0kts
04-Aug-18 16:09 45.590100 -122.591013 207 37ft 0kts
04-Aug-18 16:10 45.590100 -122.591013 207 37ft 0kts
04-Aug-18 16:11 45.590100 -122.591013 207 37ft 0kts
04-Aug-18 16:12 45.590100 -122.591013 207 37ft 0kts
04-Aug-18 16:13 45.590100 -122.591013 207 37ft 0kts
04-Aug-18 16:14 45.590100 -122.591013 207 37ft 0kts

Navigation Log

Ident Type
Flight plan parsing failed, navigation log unavailable